sensor_id;sensor_type;location;lat;lon;timestamp;temperature;humidity
36670;DHT22;22662;47.412;9.742;2022-08-20T00:01:51;16.70;99.90
36670;DHT22;22662;47.412;9.742;2022-08-20T00:04:16;16.80;99.90
36670;DHT22;22662;47.412;9.742;2022-08-20T00:06:42;16.80;99.90
36670;DHT22;22662;47.412;9.742;2022-08-20T00:09:09;16.80;99.90
36670;DHT22;22662;47.412;9.742;2022-08-20T00:11:35;16.80;99.90
36670;DHT22;22662;47.412;9.742;2022-08-20T00:14:03;16.70;99.90
36670;DHT22;22662;47.412;9.742;2022-08-20T00:16:33;16.70;99.90
36670;DHT22;22662;47.412;9.742;2022-08-20T00:19:00;16.70;99.90
36670;DHT22;22662;47.412;9.742;2022-08-20T00:21:27;16.70;99.90
36670;DHT22;22662;47.412;9.742;2022-08-20T00:23:54;16.80;99.90
36670;DHT22;22662;47.412;9.742;2022-08-20T00:26:21;16.90;99.90
36670;DHT22;22662;47.412;9.742;2022-08-20T00:28:47;17.00;99.90
36670;DHT22;22662;47.412;9.742;2022-08-20T00:31:16;17.10;99.90
36670;DHT22;22662;47.412;9.742;2022-08-20T00:33:44;17.10;99.90
36670;DHT22;22662;47.412;9.742;2022-08-20T00:36:10;17.10;99.90
36670;DHT22;22662;47.412;9.742;2022-08-20T00:38:41;17.00;99.90
36670;DHT22;22662;47.412;9.742;2022-08-20T00:41:12;17.00;99.90
36670;DHT22;22662;47.412;9.742;2022-08-20T00:46:26;17.00;99.90
36670;DHT22;22662;47.412;9.742;2022-08-20T00:48:54;17.00;99.90
36670;DHT22;22662;47.412;9.742;2022-08-20T00:51:41;17.00;99.90
36670;DHT22;22662;47.412;9.742;2022-08-20T00:54:18;17.10;99.90
36670;DHT22;22662;47.412;9.742;2022-08-20T00:56:48;17.10;99.90
36670;DHT22;22662;47.412;9.742;2022-08-20T00:59:20;17.10;99.90
36670;DHT22;22662;47.412;9.742;2022-08-20T01:01:48;17.00;99.90
36670;DHT22;22662;47.412;9.742;2022-08-20T01:04:14;16.90;99.90
36670;DHT22;22662;47.412;9.742;2022-08-20T01:06:40;16.90;99.90
36670;DHT22;22662;47.412;9.742;2022-08-20T01:09:07;17.00;99.90
36670;DHT22;22662;47.412;9.742;2022-08-20T01:11:34;16.90;99.90
36670;DHT22;22662;47.412;9.742;2022-08-20T01:14:05;16.90;99.90
36670;DHT22;22662;47.412;9.742;2022-08-20T01:17:03;17.00;99.90
36670;DHT22;22662;47.412;9.742;2022-08-20T01:19:37;16.80;99.90
36670;DHT22;22662;47.412;9.742;2022-08-20T01:22:04;16.80;99.90
36670;DHT22;22662;47.412;9.742;2022-08-20T01:24:56;16.70;99.90
36670;DHT22;22662;47.412;9.742;2022-08-20T01:27:27;16.70;99.90
36670;DHT22;22662;47.412;9.742;2022-08-20T01:29:54;16.70;99.90
36670;DHT22;22662;47.412;9.742;2022-08-20T01:32:20;16.80;99.90
36670;DHT22;22662;47.412;9.742;2022-08-20T01:34:46;16.90;99.90
36670;DHT22;22662;47.412;9.742;2022-08-20T01:37:12;16.90;99.90
36670;DHT22;22662;47.412;9.742;2022-08-20T01:39:37;17.00;99.90
36670;DHT22;22662;47.412;9.742;2022-08-20T01:44:53;16.90;99.90
36670;DHT22;22662;47.412;9.742;2022-08-20T01:47:23;16.80;99.90
36670;DHT22;22662;47.412;9.742;2022-08-20T01:49:53;16.80;99.90
36670;DHT22;22662;47.412;9.742;2022-08-20T01:54:56;16.80;99.90
36670;DHT22;22662;47.412;9.742;2022-08-20T01:57:24;16.70;99.90
36670;DHT22;22662;47.412;9.742;2022-08-20T01:59:52;16.80;99.90
36670;DHT22;22662;47.412;9.742;2022-08-20T02:02:18;16.90;99.90
36670;DHT22;22662;47.412;9.742;2022-08-20T02:04:44;16.90;99.90
36670;DHT22;22662;47.412;9.742;2022-08-20T02:07:14;17.00;99.90
36670;DHT22;22662;47.412;9.742;2022-08-20T02:09:41;16.90;99.90
36670;DHT22;22662;47.412;9.742;2022-08-20T02:12:09;17.00;99.90
36670;DHT22;22662;47.412;9.742;2022-08-20T02:14:48;17.00;99.90
36670;DHT22;22662;47.412;9.742;2022-08-20T02:17:16;17.00;99.90
36670;DHT22;22662;47.412;9.742;2022-08-20T02:19:47;17.00;99.90
36670;DHT22;22662;47.412;9.742;2022-08-20T02:22:25;17.10;99.90
36670;DHT22;22662;47.412;9.742;2022-08-20T02:24:52;17.00;99.90
36670;DHT22;22662;47.412;9.742;2022-08-20T02:27:19;17.00;99.90
36670;DHT22;22662;47.412;9.742;2022-08-20T02:29:46;17.00;99.90
36670;DHT22;22662;47.412;9.742;2022-08-20T02:32:12;17.10;99.90
36670;DHT22;22662;47.412;9.742;2022-08-20T02:34:37;17.10;99.90
36670;DHT22;22662;47.412;9.742;2022-08-20T02:37:05;17.10;99.90
36670;DHT22;22662;47.412;9.742;2022-08-20T02:39:31;17.10;99.90
36670;DHT22;22662;47.412;9.742;2022-08-20T02:41:57;17.00;99.90
36670;DHT22;22662;47.412;9.742;2022-08-20T02:44:23;16.90;99.90
36670;DHT22;22662;47.412;9.742;2022-08-20T02:46:49;16.90;99.90
36670;DHT22;22662;47.412;9.742;2022-08-20T02:49:16;16.80;99.90
36670;DHT22;22662;47.412;9.742;2022-08-20T02:51:43;16.80;99.90
36670;DHT22;22662;47.412;9.742;2022-08-20T02:54:10;16.80;99.90
36670;DHT22;22662;47.412;9.742;2022-08-20T02:56:36;16.80;99.90
36670;DHT22;22662;47.412;9.742;2022-08-20T02:59:02;16.70;99.90
36670;DHT22;22662;47.412;9.742;2022-08-20T03:01:28;16.60;99.90
36670;DHT22;22662;47.412;9.742;2022-08-20T03:03:55;16.50;99.90
36670;DHT22;22662;47.412;9.742;2022-08-20T03:06:23;16.40;99.90
36670;DHT22;22662;47.412;9.742;2022-08-20T03:08:49;16.40;99.90
36670;DHT22;22662;47.412;9.742;2022-08-20T03:11:16;16.50;99.90
36670;DHT22;22662;47.412;9.742;2022-08-20T03:13:42;16.50;99.90
36670;DHT22;22662;47.412;9.742;2022-08-20T03:16:08;16.50;99.90
36670;DHT22;22662;47.412;9.742;2022-08-20T03:18:38;16.60;99.90
36670;DHT22;22662;47.412;9.742;2022-08-20T03:21:06;16.70;99.90
36670;DHT22;22662;47.412;9.742;2022-08-20T03:23:32;16.80;99.90
36670;DHT22;22662;47.412;9.742;2022-08-20T03:25:59;16.90;99.90
36670;DHT22;22662;47.412;9.742;2022-08-20T03:28:25;16.90;99.90
36670;DHT22;22662;47.412;9.742;2022-08-20T03:30:51;16.80;99.90
36670;DHT22;22662;47.412;9.742;2022-08-20T03:33:17;16.80;99.90
36670;DHT22;22662;47.412;9.742;2022-08-20T03:35:45;16.70;99.90
36670;DHT22;22662;47.412;9.742;2022-08-20T03:38:12;16.70;99.90
36670;DHT22;22662;47.412;9.742;2022-08-20T03:40:39;16.70;99.90
36670;DHT22;22662;47.412;9.742;2022-08-20T03:43:07;16.70;99.90
36670;DHT22;22662;47.412;9.742;2022-08-20T03:45:34;16.80;99.90
36670;DHT22;22662;47.412;9.742;2022-08-20T03:48:01;16.80;99.90
36670;DHT22;22662;47.412;9.742;2022-08-20T03:50:29;16.90;99.90
36670;DHT22;22662;47.412;9.742;2022-08-20T03:52:55;17.00;99.90
36670;DHT22;22662;47.412;9.742;2022-08-20T03:55:23;17.00;99.90
36670;DHT22;22662;47.412;9.742;2022-08-20T03:57:52;16.90;99.90
36670;DHT22;22662;47.412;9.742;2022-08-20T04:00:28;16.90;99.90
36670;DHT22;22662;47.412;9.742;2022-08-20T04:02:55;16.90;99.90
36670;DHT22;22662;47.412;9.742;2022-08-20T04:05:23;16.90;99.90
36670;DHT22;22662;47.412;9.742;2022-08-20T04:07:49;16.90;99.90
36670;DHT22;22662;47.412;9.742;2022-08-20T04:10:16;17.00;99.90
36670;DHT22;22662;47.412;9.742;2022-08-20T04:12:42;17.00;99.90
36670;DHT22;22662;47.412;9.742;2022-08-20T04:15:13;17.00;99.90
36670;DHT22;22662;47.412;9.742;2022-08-20T04:17:42;17.00;99.90
36670;DHT22;22662;47.412;9.742;2022-08-20T04:20:11;16.90;99.90
36670;DHT22;22662;47.412;9.742;2022-08-20T04:22:37;16.90;99.90
36670;DHT22;22662;47.412;9.742;2022-08-20T04:25:06;16.90;99.90
36670;DHT22;22662;47.412;9.742;2022-08-20T04:27:36;16.80;99.90
36670;DHT22;22662;47.412;9.742;2022-08-20T04:30:04;16.80;99.90
36670;DHT22;22662;47.412;9.742;2022-08-20T04:32:31;16.80;99.90
36670;DHT22;22662;47.412;9.742;2022-08-20T04:34:57;16.70;99.90
36670;DHT22;22662;47.412;9.742;2022-08-20T04:37:23;16.70;99.90
36670;DHT22;22662;47.412;9.742;2022-08-20T04:39:49;16.60;99.90
36670;DHT22;22662;47.412;9.742;2022-08-20T04:42:37;16.70;99.90
36670;DHT22;22662;47.412;9.742;2022-08-20T04:45:06;16.60;99.90
36670;DHT22;22662;47.412;9.742;2022-08-20T04:47:33;16.50;99.90
36670;DHT22;22662;47.412;9.742;2022-08-20T04:50:00;16.60;99.90
36670;DHT22;22662;47.412;9.742;2022-08-20T04:52:27;16.60;99.90
36670;DHT22;22662;47.412;9.742;2022-08-20T04:54:53;16.60;99.90
36670;DHT22;22662;47.412;9.742;2022-08-20T04:57:22;16.60;99.90
36670;DHT22;22662;47.412;9.742;2022-08-20T04:59:49;16.70;99.90
36670;DHT22;22662;47.412;9.742;2022-08-20T05:02:16;16.70;99.90
36670;DHT22;22662;47.412;9.742;2022-08-20T05:04:43;16.60;99.90
36670;DHT22;22662;47.412;9.742;2022-08-20T05:07:12;16.70;99.90
36670;DHT22;22662;47.412;9.742;2022-08-20T05:09:40;16.80;99.90
36670;DHT22;22662;47.412;9.742;2022-08-20T05:12:06;16.90;99.90
36670;DHT22;22662;47.412;9.742;2022-08-20T05:14:31;16.90;99.90
36670;DHT22;22662;47.412;9.742;2022-08-20T05:17:00;17.00;99.90
36670;DHT22;22662;47.412;9.742;2022-08-20T05:19:26;17.00;99.90
36670;DHT22;22662;47.412;9.742;2022-08-20T05:21:53;17.10;99.90
36670;DHT22;22662;47.412;9.742;2022-08-20T05:24:19;17.10;99.90
36670;DHT22;22662;47.412;9.742;2022-08-20T05:26:46;17.00;99.90
36670;DHT22;22662;47.412;9.742;2022-08-20T05:29:11;16.90;99.90
36670;DHT22;22662;47.412;9.742;2022-08-20T05:31:37;16.80;99.90
36670;DHT22;22662;47.412;9.742;2022-08-20T05:34:06;16.80;99.90
36670;DHT22;22662;47.412;9.742;2022-08-20T05:36:36;16.80;99.90
36670;DHT22;22662;47.412;9.742;2022-08-20T05:39:02;16.90;99.90
36670;DHT22;22662;47.412;9.742;2022-08-20T05:41:28;16.80;99.90
36670;DHT22;22662;47.412;9.742;2022-08-20T05:43:54;16.90;99.90
36670;DHT22;22662;47.412;9.742;2022-08-20T05:46:20;17.10;99.90
36670;DHT22;22662;47.412;9.742;2022-08-20T05:48:47;17.20;99.90
36670;DHT22;22662;47.412;9.742;2022-08-20T05:51:13;17.20;99.90
36670;DHT22;22662;47.412;9.742;2022-08-20T05:53:40;17.30;99.90
36670;DHT22;22662;47.412;9.742;2022-08-20T05:56:06;17.30;99.90
36670;DHT22;22662;47.412;9.742;2022-08-20T05:58:32;17.30;99.90
36670;DHT22;22662;47.412;9.742;2022-08-20T06:00:58;17.20;99.90
36670;DHT22;22662;47.412;9.742;2022-08-20T06:03:24;17.30;99.90
36670;DHT22;22662;47.412;9.742;2022-08-20T06:06:09;17.30;99.90
36670;DHT22;22662;47.412;9.742;2022-08-20T06:08:35;17.30;99.90
36670;DHT22;22662;47.412;9.742;2022-08-20T06:11:02;17.40;99.90
36670;DHT22;22662;47.412;9.742;2022-08-20T06:13:27;17.50;99.90
36670;DHT22;22662;47.412;9.742;2022-08-20T06:15:54;17.40;99.90
36670;DHT22;22662;47.412;9.742;2022-08-20T06:18:21;17.40;99.90
36670;DHT22;22662;47.412;9.742;2022-08-20T06:20:47;17.40;99.90
36670;DHT22;22662;47.412;9.742;2022-08-20T06:23:14;17.60;99.90
36670;DHT22;22662;47.412;9.742;2022-08-20T06:25:40;17.60;99.90
36670;DHT22;22662;47.412;9.742;2022-08-20T06:28:06;17.80;99.90
36670;DHT22;22662;47.412;9.742;2022-08-20T06:30:32;19.00;99.90
36670;DHT22;22662;47.412;9.742;2022-08-20T06:32:58;20.30;99.90
36670;DHT22;22662;47.412;9.742;2022-08-20T06:35:24;20.60;99.90
36670;DHT22;22662;47.412;9.742;2022-08-20T06:37:50;20.50;99.90
36670;DHT22;22662;47.412;9.742;2022-08-20T06:40:20;20.10;99.90
36670;DHT22;22662;47.412;9.742;2022-08-20T06:42:48;19.80;99.90
36670;DHT22;22662;47.412;9.742;2022-08-20T06:45:17;19.50;99.90
36670;DHT22;22662;47.412;9.742;2022-08-20T06:47:44;19.30;99.90
36670;DHT22;22662;47.412;9.742;2022-08-20T06:50:13;19.20;99.90
36670;DHT22;22662;47.412;9.742;2022-08-20T06:52:40;19.00;99.90
36670;DHT22;22662;47.412;9.742;2022-08-20T06:55:08;19.00;99.90
36670;DHT22;22662;47.412;9.742;2022-08-20T06:57:36;18.90;99.90
36670;DHT22;22662;47.412;9.742;2022-08-20T07:00:12;19.10;99.90
36670;DHT22;22662;47.412;9.742;2022-08-20T07:02:39;19.40;99.90
36670;DHT22;22662;47.412;9.742;2022-08-20T07:05:05;19.60;99.90
36670;DHT22;22662;47.412;9.742;2022-08-20T07:07:31;19.70;99.90
36670;DHT22;22662;47.412;9.742;2022-08-20T07:09:59;19.60;99.90
36670;DHT22;22662;47.412;9.742;2022-08-20T07:12:25;19.30;99.90
36670;DHT22;22662;47.412;9.742;2022-08-20T07:14:51;19.10;99.90
36670;DHT22;22662;47.412;9.742;2022-08-20T07:17:16;19.10;99.90
36670;DHT22;22662;47.412;9.742;2022-08-20T07:19:42;19.30;99.90
36670;DHT22;22662;47.412;9.742;2022-08-20T07:22:08;19.60;99.90
36670;DHT22;22662;47.412;9.742;2022-08-20T07:24:34;19.90;99.90
36670;DHT22;22662;47.412;9.742;2022-08-20T07:27:00;20.00;99.90
36670;DHT22;22662;47.412;9.742;2022-08-20T07:29:26;19.90;99.90
36670;DHT22;22662;47.412;9.742;2022-08-20T07:32:11;20.30;99.90
36670;DHT22;22662;47.412;9.742;2022-08-20T07:34:56;20.30;99.90
36670;DHT22;22662;47.412;9.742;2022-08-20T07:37:21;20.70;99.90
36670;DHT22;22662;47.412;9.742;2022-08-20T07:39:48;20.70;99.90
36670;DHT22;22662;47.412;9.742;2022-08-20T07:42:14;20.90;99.90
36670;DHT22;22662;47.412;9.742;2022-08-20T07:44:40;20.80;99.90
36670;DHT22;22662;47.412;9.742;2022-08-20T07:47:06;20.60;99.90
36670;DHT22;22662;47.412;9.742;2022-08-20T07:49:36;20.30;99.90
36670;DHT22;22662;47.412;9.742;2022-08-20T07:52:03;20.00;99.90
36670;DHT22;22662;47.412;9.742;2022-08-20T07:54:29;19.90;99.90
36670;DHT22;22662;47.412;9.742;2022-08-20T07:57:00;19.90;99.90
36670;DHT22;22662;47.412;9.742;2022-08-20T07:59:28;19.70;99.90
36670;DHT22;22662;47.412;9.742;2022-08-20T08:01:54;19.80;99.90
36670;DHT22;22662;47.412;9.742;2022-08-20T08:04:19;19.60;99.90
36670;DHT22;22662;47.412;9.742;2022-08-20T08:06:45;19.50;99.90
36670;DHT22;22662;47.412;9.742;2022-08-20T08:09:13;19.50;99.90
36670;DHT22;22662;47.412;9.742;2022-08-20T08:11:47;19.70;99.90
36670;DHT22;22662;47.412;9.742;2022-08-20T08:14:22;19.90;99.90
36670;DHT22;22662;47.412;9.742;2022-08-20T08:16:53;19.80;99.90
36670;DHT22;22662;47.412;9.742;2022-08-20T08:19:20;19.70;99.90
36670;DHT22;22662;47.412;9.742;2022-08-20T08:21:46;19.90;99.90
36670;DHT22;22662;47.412;9.742;2022-08-20T08:24:11;20.00;99.90
36670;DHT22;22662;47.412;9.742;2022-08-20T08:26:37;20.00;99.90
36670;DHT22;22662;47.412;9.742;2022-08-20T08:29:03;20.10;99.90
36670;DHT22;22662;47.412;9.742;2022-08-20T08:31:32;20.30;99.90
36670;DHT22;22662;47.412;9.742;2022-08-20T08:33:58;20.40;99.90
36670;DHT22;22662;47.412;9.742;2022-08-20T08:36:25;20.40;99.90
36670;DHT22;22662;47.412;9.742;2022-08-20T08:38:52;20.50;99.90
36670;DHT22;22662;47.412;9.742;2022-08-20T08:44:08;20.80;99.90
36670;DHT22;22662;47.412;9.742;2022-08-20T08:46:44;20.90;99.90
36670;DHT22;22662;47.412;9.742;2022-08-20T08:49:17;20.90;99.90
36670;DHT22;22662;47.412;9.742;2022-08-20T08:52:20;20.80;99.90
36670;DHT22;22662;47.412;9.742;2022-08-20T08:54:44;20.70;99.90
36670;DHT22;22662;47.412;9.742;2022-08-20T08:57:11;20.70;99.90
36670;DHT22;22662;47.412;9.742;2022-08-20T08:59:37;21.00;99.90
36670;DHT22;22662;47.412;9.742;2022-08-20T09:02:05;21.20;99.90
36670;DHT22;22662;47.412;9.742;2022-08-20T09:04:33;21.20;99.90
36670;DHT22;22662;47.412;9.742;2022-08-20T09:07:02;21.20;99.90
36670;DHT22;22662;47.412;9.742;2022-08-20T09:09:31;21.00;99.90
36670;DHT22;22662;47.412;9.742;2022-08-20T09:12:16;20.70;99.90
36670;DHT22;22662;47.412;9.742;2022-08-20T09:14:49;21.00;99.90
36670;DHT22;22662;47.412;9.742;2022-08-20T09:17:18;21.00;99.90
36670;DHT22;22662;47.412;9.742;2022-08-20T09:19:44;21.30;99.90
36670;DHT22;22662;47.412;9.742;2022-08-20T09:22:12;21.30;99.90
36670;DHT22;22662;47.412;9.742;2022-08-20T09:24:39;21.40;99.90
36670;DHT22;22662;47.412;9.742;2022-08-20T09:27:05;21.90;99.90
36670;DHT22;22662;47.412;9.742;2022-08-20T09:29:32;21.90;99.90
36670;DHT22;22662;47.412;9.742;2022-08-20T09:32:13;22.00;99.90
36670;DHT22;22662;47.412;9.742;2022-08-20T09:34:43;22.20;99.90
36670;DHT22;22662;47.412;9.742;2022-08-20T09:37:09;22.30;99.90
36670;DHT22;22662;47.412;9.742;2022-08-20T09:39:35;22.60;99.90
36670;DHT22;22662;47.412;9.742;2022-08-20T09:42:17;22.90;99.90
36670;DHT22;22662;47.412;9.742;2022-08-20T09:44:44;23.20;99.90
36670;DHT22;22662;47.412;9.742;2022-08-20T09:47:10;23.40;99.90
36670;DHT22;22662;47.412;9.742;2022-08-20T09:49:36;23.90;99.90
36670;DHT22;22662;47.412;9.742;2022-08-20T09:52:04;23.70;99.90
36670;DHT22;22662;47.412;9.742;2022-08-20T09:54:35;23.70;99.90
36670;DHT22;22662;47.412;9.742;2022-08-20T09:57:05;23.60;99.90
36670;DHT22;22662;47.412;9.742;2022-08-20T09:59:32;23.60;99.90
36670;DHT22;22662;47.412;9.742;2022-08-20T10:01:59;23.70;99.90
36670;DHT22;22662;47.412;9.742;2022-08-20T10:04:24;23.80;99.90
36670;DHT22;22662;47.412;9.742;2022-08-20T10:06:51;24.00;99.90
36670;DHT22;22662;47.412;9.742;2022-08-20T10:09:17;23.70;99.90
36670;DHT22;22662;47.412;9.742;2022-08-20T10:11:43;23.80;99.90
36670;DHT22;22662;47.412;9.742;2022-08-20T10:14:09;23.80;99.90
36670;DHT22;22662;47.412;9.742;2022-08-20T10:16:35;23.70;99.90
36670;DHT22;22662;47.412;9.742;2022-08-20T10:19:01;23.70;99.90
36670;DHT22;22662;47.412;9.742;2022-08-20T10:21:29;23.50;99.90
36670;DHT22;22662;47.412;9.742;2022-08-20T10:23:55;23.40;99.90
36670;DHT22;22662;47.412;9.742;2022-08-20T10:26:21;23.50;99.90
36670;DHT22;22662;47.412;9.742;2022-08-20T10:28:47;23.60;99.90
36670;DHT22;22662;47.412;9.742;2022-08-20T10:31:13;23.40;99.90
36670;DHT22;22662;47.412;9.742;2022-08-20T10:33:40;23.30;99.90
36670;DHT22;22662;47.412;9.742;2022-08-20T10:36:14;23.10;99.90
36670;DHT22;22662;47.412;9.742;2022-08-20T10:38:42;23.10;99.90
36670;DHT22;22662;47.412;9.742;2022-08-20T10:41:08;23.10;99.90
36670;DHT22;22662;47.412;9.742;2022-08-20T10:43:34;22.90;99.90
36670;DHT22;22662;47.412;9.742;2022-08-20T10:46:01;22.90;99.90
36670;DHT22;22662;47.412;9.742;2022-08-20T10:48:27;22.90;99.90
36670;DHT22;22662;47.412;9.742;2022-08-20T10:50:53;22.90;99.90
36670;DHT22;22662;47.412;9.742;2022-08-20T10:53:19;22.90;99.90
36670;DHT22;22662;47.412;9.742;2022-08-20T10:55:45;22.90;99.90
36670;DHT22;22662;47.412;9.742;2022-08-20T10:58:11;22.90;99.90
36670;DHT22;22662;47.412;9.742;2022-08-20T11:00:38;22.90;99.90
36670;DHT22;22662;47.412;9.742;2022-08-20T11:03:04;22.70;99.90
36670;DHT22;22662;47.412;9.742;2022-08-20T11:05:30;22.60;99.90
36670;DHT22;22662;47.412;9.742;2022-08-20T11:07:56;22.50;99.90
36670;DHT22;22662;47.412;9.742;2022-08-20T11:10:26;22.30;99.90
36670;DHT22;22662;47.412;9.742;2022-08-20T11:12:53;22.20;99.90
36670;DHT22;22662;47.412;9.742;2022-08-20T11:15:19;22.20;99.90
36670;DHT22;22662;47.412;9.742;2022-08-20T11:17:45;22.20;99.90
36670;DHT22;22662;47.412;9.742;2022-08-20T11:20:15;22.40;99.90
36670;DHT22;22662;47.412;9.742;2022-08-20T11:22:41;22.60;99.90
36670;DHT22;22662;47.412;9.742;2022-08-20T11:25:07;22.80;99.90
36670;DHT22;22662;47.412;9.742;2022-08-20T11:27:37;22.90;99.90
36670;DHT22;22662;47.412;9.742;2022-08-20T11:30:06;23.40;99.90
36670;DHT22;22662;47.412;9.742;2022-08-20T11:32:32;23.90;99.90
36670;DHT22;22662;47.412;9.742;2022-08-20T11:34:58;23.70;99.90
36670;DHT22;22662;47.412;9.742;2022-08-20T11:37:24;23.40;99.90
36670;DHT22;22662;47.412;9.742;2022-08-20T11:39:51;23.20;99.90
36670;DHT22;22662;47.412;9.742;2022-08-20T11:42:17;22.90;99.90
36670;DHT22;22662;47.412;9.742;2022-08-20T11:44:43;22.90;99.90
36670;DHT22;22662;47.412;9.742;2022-08-20T11:47:23;22.80;99.90
36670;DHT22;22662;47.412;9.742;2022-08-20T11:49:59;22.80;99.90
36670;DHT22;22662;47.412;9.742;2022-08-20T11:52:26;22.80;99.90
36670;DHT22;22662;47.412;9.742;2022-08-20T11:54:52;22.70;99.90
36670;DHT22;22662;47.412;9.742;2022-08-20T11:57:23;22.60;99.90
36670;DHT22;22662;47.412;9.742;2022-08-20T11:59:51;22.60;99.90
36670;DHT22;22662;47.412;9.742;2022-08-20T12:02:17;22.60;99.90
36670;DHT22;22662;47.412;9.742;2022-08-20T12:04:44;22.50;99.90
36670;DHT22;22662;47.412;9.742;2022-08-20T12:07:18;22.50;99.90
36670;DHT22;22662;47.412;9.742;2022-08-20T12:09:45;22.30;99.90
36670;DHT22;22662;47.412;9.742;2022-08-20T12:12:11;22.30;99.90
36670;DHT22;22662;47.412;9.742;2022-08-20T12:14:37;22.20;99.90
36670;DHT22;22662;47.412;9.742;2022-08-20T12:17:11;22.10;99.90
36670;DHT22;22662;47.412;9.742;2022-08-20T12:19:38;22.40;99.90
36670;DHT22;22662;47.412;9.742;2022-08-20T12:22:05;22.50;99.90
36670;DHT22;22662;47.412;9.742;2022-08-20T12:24:31;22.80;99.90
36670;DHT22;22662;47.412;9.742;2022-08-20T12:27:19;22.90;99.90
36670;DHT22;22662;47.412;9.742;2022-08-20T12:29:47;23.10;99.90
36670;DHT22;22662;47.412;9.742;2022-08-20T12:32:15;23.10;99.90
36670;DHT22;22662;47.412;9.742;2022-08-20T12:34:41;23.10;99.90
36670;DHT22;22662;47.412;9.742;2022-08-20T12:37:10;23.40;99.90
36670;DHT22;22662;47.412;9.742;2022-08-20T12:39:38;23.60;99.90
36670;DHT22;22662;47.412;9.742;2022-08-20T12:42:05;23.60;99.90
36670;DHT22;22662;47.412;9.742;2022-08-20T12:44:31;23.90;99.90
36670;DHT22;22662;47.412;9.742;2022-08-20T12:49:32;23.90;99.90
36670;DHT22;22662;47.412;9.742;2022-08-20T12:51:58;24.10;99.90
36670;DHT22;22662;47.412;9.742;2022-08-20T12:54:24;24.30;99.90
36670;DHT22;22662;47.412;9.742;2022-08-20T12:56:50;24.20;99.90
36670;DHT22;22662;47.412;9.742;2022-08-20T12:59:17;23.70;99.90
36670;DHT22;22662;47.412;9.742;2022-08-20T13:01:43;23.60;99.90
36670;DHT22;22662;47.412;9.742;2022-08-20T13:04:08;23.80;99.90
36670;DHT22;22662;47.412;9.742;2022-08-20T13:06:34;23.90;99.90
36670;DHT22;22662;47.412;9.742;2022-08-20T13:09:00;24.10;99.90
36670;DHT22;22662;47.412;9.742;2022-08-20T13:11:26;24.00;99.90
36670;DHT22;22662;47.412;9.742;2022-08-20T13:13:52;23.90;99.90
36670;DHT22;22662;47.412;9.742;2022-08-20T13:16:17;24.00;99.90
36670;DHT22;22662;47.412;9.742;2022-08-20T13:18:43;24.10;99.90
36670;DHT22;22662;47.412;9.742;2022-08-20T13:21:09;23.90;99.90
36670;DHT22;22662;47.412;9.742;2022-08-20T13:23:35;23.90;99.90
36670;DHT22;22662;47.412;9.742;2022-08-20T13:26:01;24.00;99.90
36670;DHT22;22662;47.412;9.742;2022-08-20T13:28:27;23.90;99.90
36670;DHT22;22662;47.412;9.742;2022-08-20T13:30:53;23.80;99.90
36670;DHT22;22662;47.412;9.742;2022-08-20T13:33:18;23.80;99.90
36670;DHT22;22662;47.412;9.742;2022-08-20T13:35:44;23.80;99.90
36670;DHT22;22662;47.412;9.742;2022-08-20T13:38:12;23.70;99.90
36670;DHT22;22662;47.412;9.742;2022-08-20T13:40:38;23.40;99.90
36670;DHT22;22662;47.412;9.742;2022-08-20T13:43:04;23.10;99.90
36670;DHT22;22662;47.412;9.742;2022-08-20T13:45:29;23.00;99.90
36670;DHT22;22662;47.412;9.742;2022-08-20T13:47:55;23.00;99.90
36670;DHT22;22662;47.412;9.742;2022-08-20T13:50:23;23.10;99.90
36670;DHT22;22662;47.412;9.742;2022-08-20T13:52:49;23.10;99.90
36670;DHT22;22662;47.412;9.742;2022-08-20T13:55:18;23.10;99.90
36670;DHT22;22662;47.412;9.742;2022-08-20T13:57:44;23.20;99.90
36670;DHT22;22662;47.412;9.742;2022-08-20T14:00:17;23.20;99.90
36670;DHT22;22662;47.412;9.742;2022-08-20T14:02:44;23.40;99.90
36670;DHT22;22662;47.412;9.742;2022-08-20T14:05:10;23.20;99.90
36670;DHT22;22662;47.412;9.742;2022-08-20T14:07:36;23.10;99.90
36670;DHT22;22662;47.412;9.742;2022-08-20T14:10:07;23.20;99.90
36670;DHT22;22662;47.412;9.742;2022-08-20T14:12:33;23.20;99.90
36670;DHT22;22662;47.412;9.742;2022-08-20T14:14:59;23.20;99.90
36670;DHT22;22662;47.412;9.742;2022-08-20T14:17:28;23.10;99.90
36670;DHT22;22662;47.412;9.742;2022-08-20T14:20:00;23.10;99.90
36670;DHT22;22662;47.412;9.742;2022-08-20T14:22:26;23.10;99.90
36670;DHT22;22662;47.412;9.742;2022-08-20T14:24:53;23.30;99.90
36670;DHT22;22662;47.412;9.742;2022-08-20T14:27:20;23.40;99.90
36670;DHT22;22662;47.412;9.742;2022-08-20T14:29:48;23.60;99.90
36670;DHT22;22662;47.412;9.742;2022-08-20T14:32:14;23.50;99.90
36670;DHT22;22662;47.412;9.742;2022-08-20T14:34:40;23.60;99.90
36670;DHT22;22662;47.412;9.742;2022-08-20T14:37:24;23.60;99.90
36670;DHT22;22662;47.412;9.742;2022-08-20T14:39:53;23.60;99.90
36670;DHT22;22662;47.412;9.742;2022-08-20T14:42:19;23.40;99.90
36670;DHT22;22662;47.412;9.742;2022-08-20T14:44:47;23.50;99.90
36670;DHT22;22662;47.412;9.742;2022-08-20T14:47:26;23.50;99.90
36670;DHT22;22662;47.412;9.742;2022-08-20T14:49:55;23.40;99.90
36670;DHT22;22662;47.412;9.742;2022-08-20T14:52:22;23.60;99.90
36670;DHT22;22662;47.412;9.742;2022-08-20T14:54:49;23.40;99.90
36670;DHT22;22662;47.412;9.742;2022-08-20T14:57:17;23.40;99.90
36670;DHT22;22662;47.412;9.742;2022-08-20T14:59:43;23.50;99.90
36670;DHT22;22662;47.412;9.742;2022-08-20T15:02:11;23.50;99.90
36670;DHT22;22662;47.412;9.742;2022-08-20T15:04:37;23.40;99.90
36670;DHT22;22662;47.412;9.742;2022-08-20T15:07:04;23.30;99.90
36670;DHT22;22662;47.412;9.742;2022-08-20T15:09:32;23.10;99.90
36670;DHT22;22662;47.412;9.742;2022-08-20T15:11:58;23.00;99.90
36670;DHT22;22662;47.412;9.742;2022-08-20T15:14:25;22.90;99.90
36670;DHT22;22662;47.412;9.742;2022-08-20T15:16:51;22.60;99.90
36670;DHT22;22662;47.412;9.742;2022-08-20T15:19:17;22.30;99.90
36670;DHT22;22662;47.412;9.742;2022-08-20T15:21:43;22.20;99.90
36670;DHT22;22662;47.412;9.742;2022-08-20T15:24:09;22.20;99.90
36670;DHT22;22662;47.412;9.742;2022-08-20T15:26:35;22.20;99.90
36670;DHT22;22662;47.412;9.742;2022-08-20T15:29:00;22.00;99.90
36670;DHT22;22662;47.412;9.742;2022-08-20T15:31:26;21.90;99.90
36670;DHT22;22662;47.412;9.742;2022-08-20T15:33:52;21.70;99.90
36670;DHT22;22662;47.412;9.742;2022-08-20T15:36:18;21.40;99.90
36670;DHT22;22662;47.412;9.742;2022-08-20T15:38:44;21.20;99.90
36670;DHT22;22662;47.412;9.742;2022-08-20T15:41:10;20.90;99.90
36670;DHT22;22662;47.412;9.742;2022-08-20T15:43:37;20.50;99.90
36670;DHT22;22662;47.412;9.742;2022-08-20T15:46:04;20.50;99.90
36670;DHT22;22662;47.412;9.742;2022-08-20T15:48:35;20.40;99.90